Elmira Corning Regional Airport
KELM : now visible

Airfield :











YOU CAN JOIN US ON...

 
LOGIN :

Register | Disclaimer

   EN    FR    IT 

 









Legend :    VFR   Marginal VFR   IFR   Intensive IFR   Very Intensive IFR
Visi :
Ceiling :
>= 8 km
>= 3000ft
5 to 8 km
1000 to 3000 ft
1500m to 5 km
500 to 1000 ft
800 to 1500m
200 to 500 ft
< 800m
< 200 ft
Symbols :   Thunderstorms  Fog  Heavy snow  Heavy precipitations  Wind > 20 kt






- Airport Elevation : 954 ft
- IATA code : ELM


KELM - Elmira Corning Regional

CURRENT METAR :
  • 040753Z AUTO 26008KT 10SM OVC085 06/M11 A2996 RMK AO2 SLP150 T00611111

EXPIRED METARs :
  • 040653Z AUTO 25010KT 10SM OVC080 06/M11 A2997 RMK AO2 SLP151 T00611111
  • 040553Z AUTO 24013KT 10SM BKN100 OVC120 06/M11 A2997 RMK AO2 SLP155 T00561106 10056 20044 58017

TAF KELM
Valid from the 04 at 06:00 until the 05 at 06:00 UTC


040537Z 0406/0506 22009KT P6SM OVC150 WS020/24035KT
FM041300 21008KT P6SM OVC050
FM041700 22010G20KT P6SM BKN045
FM050000 24005KT P6SM BKN025
FM050300 26004KT P6SM OVC015
KZNY FIR / North America



MET'MAP, your aeronautical weather chart ! - Copyright ORBIFLY December 2007 - Disclaimer

ORBIFLY MET'MAP TEAM :

Programming & Development : Alexandra Zaïnal
Concept & original design : Baudouin d'Aumeries
Assistance for programming : Marc-Olivier Méhu
Technical & hardware support : Manuel Goepfert

Contact : metmap@orbifly.com




SOURCES & CREDITS :

   NOAA       Earth
Advisory